Time;durP1;ratioP1;P1;durP2;ratioP2;P2;SDS_P1;SDS_P2;PMS_P1;PMS_P2;Temp;Humidity;BMP_temperature;BMP_pressure;BME280_temperature;BME280_humidity;BME280_pressure;Samples;Min_cycle;Max_cycle;Signal;HPM_P1;HPM_P2
2022/01/21 00:01:06;;;;;;;165.30;57.80;;;;;;;1.78;62.70;99861.91;5016681;28;20052;-71
2022/01/21 00:03:31;;;;;;;132.33;49.60;;;;;;;2.04;61.74;99857.50;5021169;28;20041;-72
2022/01/21 00:05:56;;;;;;;102.57;43.03;;;;;;;1.69;63.58;99861.69;5017839;28;20037;-73
2022/01/21 00:08:22;;;;;;;119.80;49.13;;;;;;;1.43;64.44;99859.03;5015770;28;20022;-73
2022/01/21 00:10:48;;;;;;;101.13;38.97;;;;;;;1.77;63.88;99856.78;4997835;28;20062;-73
2022/01/21 00:13:33;;;;;;;100.67;40.47;;;;;;;2.04;61.95;99851.47;4996512;28;20028;-72
2022/01/21 00:16:05;;;;;;;89.43;40.90;;;;;;;1.95;62.90;99865.16;4998556;28;20080;-73
2022/01/21 00:18:37;;;;;;;90.20;36.90;;;;;;;1.66;63.67;99857.50;5012080;28;20044;-73
2022/01/21 00:31:59;;;;;;;75.13;31.02;;;;;;;2.08;62.85;99887.75;5012355;28;20200;-73
2022/01/21 00:34:25;;;;;;;62.63;29.67;;;;;;;2.06;62.74;99879.13;4994681;28;20034;-72
2022/01/21 00:36:50;;;;;;;76.17;31.57;;;;;;;2.26;62.96;99887.41;5011355;28;20143;-72
2022/01/21 00:39:20;;;;;;;80.50;32.37;;;;;;;2.13;63.40;99871.75;5013808;28;20222;-72
2022/01/21 00:41:52;;;;;;;71.57;30.10;;;;;;;2.28;62.30;99868.06;5014754;28;20042;-73
2022/01/21 00:44:17;;;;;;;70.70;31.13;;;;;;;2.15;62.97;99867.25;5013187;28;20056;-73
2022/01/21 00:46:43;;;;;;;100.37;39.70;;;;;;;1.97;63.68;99856.25;5013473;28;20332;-71
2022/01/21 00:49:08;;;;;;;106.50;40.17;;;;;;;2.17;63.16;99845.31;5013722;28;20344;-72
2022/01/21 00:51:33;;;;;;;105.00;39.70;;;;;;;2.33;62.74;99854.69;5013280;28;20367;-73
2022/01/21 00:53:59;;;;;;;102.00;37.90;;;;;;;2.30;63.09;99849.69;5014527;28;20040;-73
2022/01/21 00:56:24;;;;;;;94.67;37.00;;;;;;;2.26;63.26;99853.44;5013039;28;20137;-73
2022/01/21 00:58:50;;;;;;;83.80;34.73;;;;;;;2.20;62.69;99831.19;5013646;28;20042;-73
2022/01/21 01:01:15;;;;;;;92.87;33.70;;;;;;;1.85;64.73;99841.44;5014790;28;20030;-72
2022/01/21 01:03:41;;;;;;;89.13;34.17;;;;;;;1.65;65.35;99821.06;4996663;28;20044;-71
2022/01/21 01:06:06;;;;;;;85.50;34.10;;;;;;;1.75;65.90;99833.38;5014911;28;20084;-73
2022/01/21 01:08:31;;;;;;;91.60;33.33;;;;;;;1.85;65.37;99839.66;5012956;28;20316;-73
2022/01/21 01:11:17;;;;;;;78.40;33.57;;;;;;;1.88;66.19;99844.66;5017183;28;20091;-73
2022/01/21 01:21:43;;;;;;;;;;;;;;;1.87;65.38;99837.78;5015870;28;20033;-73
2022/01/21 01:29:19;;;;;;;66.40;28.87;;;;;;;1.74;64.72;99813.44;5024566;28;20045;-73
2022/01/21 01:31:46;;;;;;;66.83;27.03;;;;;;;1.46;66.44;99805.81;5020499;28;20096;-72
2022/01/21 01:34:12;;;;;;;63.20;29.10;;;;;;;1.20;68.71;99816.22;4994260;28;20038;-71
2022/01/21 01:36:39;;;;;;;93.97;35.40;;;;;;;1.15;69.61;99828.72;5002268;28;20048;-72
2022/01/21 01:39:29;;;;;;;69.83;29.07;;;;;;;1.21;69.20;99798.78;5017620;28;20320;-73
2022/01/21 01:42:52;;;;;;;59.23;26.63;;;;;;;1.10;70.41;99838.63;5016487;28;20041;-73
2022/01/21 01:50:30;;;;;;;82.25;30.55;;;;;;;1.35;68.90;99848.28;5015580;28;20073;-73
2022/01/21 01:52:56;;;;;;;78.83;32.13;;;;;;;1.29;69.33;99830.41;5002820;28;20327;-73
2022/01/21 01:55:22;;;;;;;71.70;29.27;;;;;;;1.28;69.97;99839.19;5016971;28;20046;-72
2022/01/21 01:57:48;;;;;;;59.93;26.93;;;;;;;1.13;71.58;99841.03;5015663;28;20026;-72
2022/01/21 02:00:14;;;;;;;62.80;27.17;;;;;;;1.34;70.74;99836.16;5014861;28;20041;-73
2022/01/21 02:02:39;;;;;;;72.90;29.10;;;;;;;1.38;70.90;99821.16;5015577;28;20029;-73
2022/01/21 02:05:05;;;;;;;58.93;26.70;;;;;;;1.51;71.21;99817.63;5015926;28;20087;-71
2022/01/21 02:07:30;;;;;;;56.27;25.40;;;;;;;1.62;70.74;99829.94;5016870;28;20041;-72
2022/01/21 02:09:56;;;;;;;58.87;24.73;;;;;;;1.61;71.05;99833.50;5017506;28;20209;-72
2022/01/21 02:12:21;;;;;;;58.40;24.97;;;;;;;1.86;69.85;99835.28;5015223;28;20102;-73
2022/01/21 02:14:50;;;;;;;57.67;24.80;;;;;;;1.90;69.80;99836.72;5016265;28;20041;-72
2022/01/21 02:21:28;;;;;;;53.53;24.33;;;;;;;1.72;70.19;99849.25;5018144;28;20064;-72
2022/01/21 02:22:49;;;;;;;48.00;21.97;;;;;;;1.69;70.65;99849.47;5003730;28;20052;-73
2022/01/21 02:25:19;;;;;;;45.07;20.63;;;;;;;1.84;70.15;99858.03;5016101;28;20045;-73
2022/01/21 02:27:57;;;;;;;54.63;23.23;;;;;;;2.02;69.79;99871.63;5017477;28;20033;-73
2022/01/21 02:30:24;;;;;;;50.23;21.50;;;;;;;1.70;71.00;99866.81;5015168;28;20099;-71
2022/01/21 02:32:53;;;;;;;49.03;22.13;;;;;;;1.96;69.93;99872.88;5015504;28;20046;-72
2022/01/21 02:35:20;;;;;;;54.33;22.07;;;;;;;2.00;69.44;99873.50;5017678;28;20028;-73
2022/01/21 02:37:46;;;;;;;49.97;21.63;;;;;;;1.85;69.33;99868.38;5013223;28;20026;-72
2022/01/21 02:40:13;;;;;;;48.17;22.27;;;;;;;2.11;68.50;99877.09;5015255;28;20209;-71
2022/01/21 02:42:39;;;;;;;48.80;23.53;;;;;;;2.05;68.64;99876.63;5016576;28;20026;-72
2022/01/21 02:45:06;;;;;;;52.90;23.83;;;;;;;2.12;68.48;99870.09;5001660;28;20041;-73
2022/01/21 02:47:32;;;;;;;50.00;23.13;;;;;;;2.12;68.85;99873.53;5016157;28;20037;-73
2022/01/21 02:49:57;;;;;;;58.57;23.90;;;;;;;2.33;67.91;99880.81;5017389;28;20229;-72
2022/01/21 02:52:26;;;;;;;54.43;22.83;;;;;;;2.24;67.82;99866.63;5022841;28;20033;-72
2022/01/21 02:54:52;;;;;;;48.73;21.83;;;;;;;2.26;67.24;99856.06;5016911;28;20084;-73
2022/01/21 02:57:17;;;;;;;54.40;22.27;;;;;;;2.00;68.45;99870.88;5016590;28;20046;-73
2022/01/21 02:59:43;;;;;;;45.87;21.43;;;;;;;2.07;68.65;99854.69;5014829;28;20315;-73
2022/01/21 03:02:09;;;;;;;50.83;21.50;;;;;;;2.27;68.19;99836.84;5015478;28;20068;-72
2022/01/21 03:04:44;;;;;;;52.93;22.23;;;;;;;2.41;67.43;99841.94;5015667;28;20101;-71
2022/01/21 03:07:10;;;;;;;47.93;20.87;;;;;;;1.91;69.62;99833.19;4999546;28;20320;-72
2022/01/21 03:09:35;;;;;;;43.13;19.57;;;;;;;2.31;68.31;99854.81;5001152;28;20030;-73
2022/01/21 03:12:01;;;;;;;46.00;20.63;;;;;;;2.04;69.33;99852.28;5016773;28;20037;-73
2022/01/21 03:14:26;;;;;;;48.20;20.57;;;;;;;2.35;68.74;99842.34;5013718;28;20042;-72
2022/01/21 03:16:52;;;;;;;42.73;19.57;;;;;;;2.53;67.81;99833.22;5015347;28;20037;-72
2022/01/21 03:19:17;;;;;;;48.83;20.23;;;;;;;2.82;66.79;99825.91;5001071;28;20066;-73
2022/01/21 03:21:42;;;;;;;59.53;23.73;;;;;;;2.56;67.93;99836.44;5014948;28;20025;-73
2022/01/21 03:24:08;;;;;;;52.70;20.90;;;;;;;2.46;67.61;99822.38;5015703;28;20386;-73
2022/01/21 03:26:34;;;;;;;46.40;20.93;;;;;;;2.46;68.60;99824.16;5013260;28;20224;-72
2022/01/21 03:29:02;;;;;;;42.37;19.73;;;;;;;2.51;68.28;99828.09;5014670;28;20030;-72
2022/01/21 03:31:30;;;;;;;56.57;21.93;;;;;;;2.82;66.84;99845.03;5014644;28;20040;-73
2022/01/21 03:33:59;;;;;;;53.70;23.40;;;;;;;2.82;67.18;99838.97;5013594;28;20054;-73
2022/01/21 03:36:25;;;;;;;51.07;23.30;;;;;;;2.94;66.22;99843.31;4991894;28;20030;-72
2022/01/21 03:38:50;;;;;;;51.50;22.23;;;;;;;3.07;66.11;99851.94;5014560;28;20379;-72
2022/01/21 03:41:16;;;;;;;51.20;22.40;;;;;;;2.82;66.67;99831.13;5002832;28;20038;-73
2022/01/21 03:43:41;;;;;;;64.17;25.53;;;;;;;2.84;66.78;99837.09;5015549;28;20049;-73
2022/01/21 03:46:06;;;;;;;54.17;23.97;;;;;;;2.99;66.10;99841.22;5015304;28;20042;-71
2022/01/21 03:48:33;;;;;;;61.10;25.77;;;;;;;2.77;66.78;99841.09;5014034;28;20046;-72
2022/01/21 03:50:59;;;;;;;50.73;23.80;;;;;;;2.89;66.70;99854.13;4999653;28;20041;-73
2022/01/21 03:53:24;;;;;;;58.80;24.70;;;;;;;3.09;65.92;99855.28;5020170;28;20029;-73
2022/01/21 03:55:50;;;;;;;58.80;24.77;;;;;;;2.98;66.51;99860.47;5021821;28;20076;-72
2022/01/21 03:58:16;;;;;;;64.43;25.73;;;;;;;2.95;67.11;99857.22;5015253;28;20037;-72
2022/01/21 04:00:53;;;;;;;57.33;25.67;;;;;;;2.91;67.42;99864.47;5013667;28;20323;-73
2022/01/21 04:03:20;;;;;;;61.50;23.73;;;;;;;3.17;65.94;99850.34;5011216;28;20323;-73
2022/01/21 04:05:45;;;;;;;61.60;24.20;;;;;;;3.23;65.83;99845.63;5013859;28;20046;-73
2022/01/21 04:08:12;;;;;;;56.30;25.03;;;;;;;3.45;65.04;99846.53;5013571;28;20093;-72
2022/01/21 04:10:48;;;;;;;55.83;24.17;;;;;;;3.27;64.99;99845.28;5011817;28;20050;-72
2022/01/21 04:13:16;;;;;;;51.50;23.80;;;;;;;3.32;65.85;99844.94;5012970;28;20040;-73
2022/01/21 04:15:43;;;;;;;59.83;24.50;;;;;;;3.40;65.80;99846.03;5014146;28;20290;-72
2022/01/21 04:18:10;;;;;;;67.53;30.83;;;;;;;3.41;65.02;99846.88;5016221;28;20044;-71
2022/01/21 04:20:36;;;;;;;67.93;29.40;;;;;;;3.43;65.33;99847.59;5021420;28;20038;-72
2022/01/21 04:23:01;;;;;;;63.40;27.00;;;;;;;3.43;65.37;99824.88;4999272;28;20049;-73
2022/01/21 04:25:27;;;;;;;58.10;25.70;;;;;;;3.36;65.54;99835.91;5014495;28;20354;-73
2022/01/21 04:27:52;;;;;;;60.27;27.03;;;;;;;3.27;64.89;99831.38;5021247;28;20040;-72
2022/01/21 04:30:18;;;;;;;51.83;23.00;;;;;;;3.13;66.07;99827.97;5019234;28;20040;-72
2022/01/21 04:32:43;;;;;;;61.63;25.10;;;;;;;2.91;66.73;99829.63;5013323;28;20045;-73
2022/01/21 04:35:08;;;;;;;54.90;24.20;;;;;;;2.63;67.11;99820.31;5014580;28;20042;-73
2022/01/21 04:37:37;;;;;;;66.40;25.53;;;;;;;2.15;71.48;99838.53;5011225;28;20356;-72
2022/01/21 04:40:10;;;;;;;50.40;22.50;;;;;;;2.00;72.55;99842.16;5013356;28;20042;-72
2022/01/21 04:48:05;;;;;;;48.70;21.63;;;;;;;1.47;75.72;99837.03;5014065;28;20044;-72
2022/01/21 04:50:39;;;;;;;56.33;25.87;;;;;;;1.54;75.55;99845.28;5020788;28;20109;-72
2022/01/21 04:53:06;;;;;;;58.03;25.23;;;;;;;1.65;74.27;99861.06;5018866;28;20371;-72
2022/01/21 04:55:32;;;;;;;60.03;23.67;;;;;;;1.97;71.85;99871.94;5012361;28;20054;-73
2022/01/21 04:57:57;;;;;;;53.67;25.30;;;;;;;2.07;71.13;99864.31;5012846;28;20042;-72
2022/01/21 05:00:23;;;;;;;58.13;24.83;;;;;;;2.32;69.76;99874.75;5013550;28;20034;-72
2022/01/21 05:02:48;;;;;;;72.53;26.77;;;;;;;2.06;69.82;99879.13;5012552;28;20286;-71
2022/01/21 05:05:13;;;;;;;55.33;25.70;;;;;;;2.02;70.84;99867.22;4999054;28;20033;-73
2022/01/21 05:07:40;;;;;;;56.53;23.47;;;;;;;2.29;70.07;99866.31;4989635;28;20109;-73
2022/01/21 05:10:07;;;;;;;79.47;34.17;;;;;;;2.64;69.05;99876.91;5018987;28;20045;-73
2022/01/21 05:12:32;;;;;;;79.10;32.40;;;;;;;2.84;67.88;99884.16;5021012;28;20244;-72
2022/01/21 05:17:25;;;;;;;96.50;35.07;;;;;;;2.72;67.47;99890.25;5012697;28;20339;-73
2022/01/21 05:19:52;;;;;;;77.53;32.00;;;;;;;2.80;67.75;99896.63;5013702;28;20037;-73
2022/01/21 05:22:18;;;;;;;94.87;36.37;;;;;;;2.84;67.56;99898.06;5013965;28;20034;-73
2022/01/21 05:24:43;;;;;;;86.97;35.90;;;;;;;2.83;67.12;99913.88;4996873;28;20243;-72
2022/01/21 05:27:11;;;;;;;77.33;31.63;;;;;;;2.91;67.19;99914.16;5014065;28;20049;-72
2022/01/21 05:29:37;;;;;;;75.40;29.83;;;;;;;2.94;67.02;99905.25;5010829;28;20320;-73
2022/01/21 05:32:05;;;;;;;75.27;30.27;;;;;;;3.07;66.95;99913.91;5012741;28;20040;-73
2022/01/21 05:34:31;;;;;;;59.83;25.73;;;;;;;3.36;66.05;99925.75;5011707;28;20319;-72
2022/01/21 05:36:57;;;;;;;56.63;24.07;;;;;;;3.38;65.54;99923.84;5017498;28;20317;-72
2022/01/21 05:39:22;;;;;;;58.00;24.27;;;;;;;3.15;66.37;99914.22;5005111;28;20271;-73
2022/01/21 05:41:51;;;;;;;50.90;21.73;;;;;;;3.39;66.17;99932.53;5002472;28;20046;-73
2022/01/21 05:47:00;;;;;;;44.23;20.80;;;;;;;3.42;67.81;99948.84;5002473;28;20026;-72
2022/01/21 05:49:29;;;;;;;41.90;21.03;;;;;;;3.15;69.75;99946.44;5002327;28;20066;-73
2022/01/21 05:52:03;;;;;;;49.63;22.80;;;;;;;3.18;70.50;99951.47;5002256;28;20041;-73
2022/01/21 05:54:29;;;;;;;53.55;22.50;;;;;;;3.20;71.20;99960.03;5002373;28;20038;-72
2022/01/21 05:56:54;;;;;;;59.13;23.97;;;;;;;3.14;73.18;99970.94;4984756;28;20022;-72
2022/01/21 05:59:20;;;;;;;51.83;24.37;;;;;;;3.30;73.32;99977.69;5002156;28;20034;-73
2022/01/21 06:01:45;;;;;;;55.83;26.17;;;;;;;3.28;74.75;99979.59;5003138;28;20026;-73
2022/01/21 06:04:11;;;;;;;51.83;26.23;;;;;;;3.20;76.44;99974.91;5004766;28;20038;-72
2022/01/21 06:06:37;;;;;;;58.47;29.27;;;;;;;3.39;76.49;99975.25;4988378;28;20041;-72
2022/01/21 06:09:06;;;;;;;56.13;27.30;;;;;;;3.40;77.01;99978.69;5005856;28;20034;-73
2022/01/21 06:11:33;;;;;;;53.53;24.77;;;;;;;3.41;78.42;99989.06;5006026;28;20041;-73
2022/01/21 06:14:00;;;;;;;50.83;25.03;;;;;;;3.49;79.26;99991.97;5004473;28;20118;-72
2022/01/21 06:16:26;;;;;;;48.80;23.30;;;;;;;3.34;81.41;99997.47;5005792;28;20030;-72
2022/01/21 06:18:51;;;;;;;51.67;23.13;;;;;;;3.67;80.25;99986.34;5004219;28;20033;-73
2022/01/21 06:21:16;;;;;;;50.43;22.97;;;;;;;3.71;80.57;99988.63;5005674;28;20248;-73
2022/01/21 06:23:42;;;;;;;54.60;25.10;;;;;;;3.78;82.00;100000.31;5005802;28;20041;-73
2022/01/21 06:26:08;;;;;;;45.37;19.97;;;;;;;3.98;83.07;100000.63;5005147;28;20061;-71
2022/01/21 06:28:34;;;;;;;35.33;17.20;;;;;;;4.05;83.42;100010.53;5004158;28;20497;-72
2022/01/21 06:30:59;;;;;;;35.43;17.70;;;;;;;4.15;83.60;100018.53;5007797;28;20033;-73
2022/01/21 06:33:25;;;;;;;31.13;16.77;;;;;;;4.15;83.97;100015.94;5016689;28;20068;-72
2022/01/21 06:35:51;;;;;;;32.50;16.20;;;;;;;4.13;84.84;100007.34;5021669;28;20243;-72
2022/01/21 06:38:18;;;;;;;95.63;30.53;;;;;;;3.97;85.60;100019.91;5017480;28;20038;-72
2022/01/21 06:40:44;;;;;;;67.03;25.17;;;;;;;4.11;86.16;100020.56;5017712;28;20034;-73
2022/01/21 06:43:10;;;;;;;36.77;18.63;;;;;;;3.92;87.27;100022.03;5017792;28;20045;-73
2022/01/21 06:45:35;;;;;;;58.10;24.97;;;;;;;3.61;88.23;100031.28;5016047;28;20101;-73
2022/01/21 06:48:03;;;;;;;128.17;43.67;;;;;;;3.40;89.85;100015.34;5016623;28;20284;-72
2022/01/21 06:50:30;;;;;;;84.63;31.63;;;;;;;3.77;89.96;100042.34;5012024;28;20097;-72
2022/01/21 06:52:56;;;;;;;67.40;27.83;;;;;;;3.67;90.84;100049.19;5010390;28;20023;-73
2022/01/21 06:55:22;;;;;;;56.40;23.63;;;;;;;3.73;91.15;100049.56;5016176;28;20227;-73
2022/01/21 06:57:47;;;;;;;41.50;19.33;;;;;;;3.61;92.61;100045.22;5016703;28;20025;-72
2022/01/21 07:00:18;;;;;;;44.60;18.37;;;;;;;3.65;92.92;100056.31;5016838;28;20271;-72
2022/01/21 07:02:44;;;;;;;37.03;17.07;;;;;;;3.52;94.11;100051.94;5023101;28;20029;-73
2022/01/21 07:05:09;;;;;;;40.97;18.43;;;;;;;3.68;94.18;100063.94;5020928;28;20182;-73
2022/01/21 07:07:35;;;;;;;38.23;17.77;;;;;;;3.56;94.74;100070.06;5017175;28;20037;-73
2022/01/21 07:10:04;;;;;;;37.90;18.07;;;;;;;3.50;95.86;100060.88;5016548;28;20038;-73
2022/01/21 07:12:29;;;;;;;34.87;17.17;;;;;;;3.62;95.82;100067.00;5015377;28;20037;-72
2022/01/21 07:14:55;;;;;;;35.90;17.57;;;;;;;3.37;97.36;100073.16;4999594;28;20034;-73
2022/01/21 07:17:20;;;;;;;33.20;17.83;;;;;;;3.23;99.39;100087.22;5018371;28;20025;-73
2022/01/21 07:19:47;;;;;;;37.03;18.73;;;;;;;3.34;99.17;100071.59;5001483;28;20406;-73
2022/01/21 07:22:13;;;;;;;34.33;17.63;;;;;;;3.43;98.86;100086.66;5016443;28;20037;-73
2022/01/21 07:24:38;;;;;;;32.73;17.43;;;;;;;3.51;99.68;100096.56;5017730;28;20038;-72
2022/01/21 07:27:04;;;;;;;31.13;15.90;;;;;;;3.49;100.00;100090.59;5017868;28;20033;-73
2022/01/21 07:29:29;;;;;;;34.40;16.27;;;;;;;3.46;100.00;100112.59;5015998;28;20038;-74
2022/01/21 07:31:54;;;;;;;29.30;13.87;;;;;;;3.37;100.00;100118.50;5018166;28;20034;-73
2022/01/21 07:34:21;;;;;;;27.93;14.47;;;;;;;3.36;100.00;100108.13;4998766;28;20375;-72
2022/01/21 07:36:47;;;;;;;25.60;11.90;;;;;;;3.31;100.00;100128.53;5017141;28;21216;-72
2022/01/21 07:39:13;;;;;;;23.63;11.23;;;;;;;3.34;100.00;100116.09;5015344;28;20037;-73
2022/01/21 07:41:38;;;;;;;18.77;9.03;;;;;;;3.33;100.00;100118.81;5016269;28;20382;-73
2022/01/21 07:44:04;;;;;;;11.37;6.63;;;;;;;3.04;100.00;100102.47;5016282;28;20279;-72
2022/01/21 07:46:30;;;;;;;11.47;6.90;;;;;;;3.16;100.00;100126.03;5015777;28;20235;-73
2022/01/21 07:48:57;;;;;;;10.63;6.23;;;;;;;3.25;100.00;100135.03;5016996;28;20089;-72
2022/01/21 07:51:23;;;;;;;9.90;5.87;;;;;;;3.26;100.00;100136.72;5017211;28;20096;-73
2022/01/21 07:53:48;;;;;;;12.93;6.93;;;;;;;3.14;100.00;100130.56;5000460;28;20255;-73
2022/01/21 07:56:14;;;;;;;15.93;7.93;;;;;;;3.29;100.00;100138.28;5000129;28;20097;-72
2022/01/21 07:58:39;;;;;;;14.00;6.90;;;;;;;3.27;100.00;100142.78;5017903;28;20049;-72
2022/01/21 08:01:05;;;;;;;9.00;5.40;;;;;;;3.19;100.00;100140.69;5017270;28;20061;-73
2022/01/21 08:03:30;;;;;;;12.43;6.10;;;;;;;3.25;100.00;100157.75;5016208;28;20331;-73
2022/01/21 08:05:56;;;;;;;15.27;5.77;;;;;;;3.36;100.00;100145.59;5021065;28;20026;-72
2022/01/21 08:08:22;;;;;;;9.33;5.20;;;;;;;3.42;100.00;100163.50;5021966;28;20026;-72
2022/01/21 08:10:47;;;;;;;9.55;5.95;;;;;;;3.56;100.00;100178.25;5021451;28;20037;-73
2022/01/21 08:13:12;;;;;;;20.20;8.53;;;;;;;3.50;100.00;100179.50;5021419;28;20040;-73
2022/01/21 08:15:38;;;;;;;21.97;10.17;;;;;;;3.45;99.83;100165.06;5021543;28;20036;-72
2022/01/21 08:18:04;;;;;;;23.27;10.80;;;;;;;3.59;100.00;100195.53;5021231;28;20025;-72
2022/01/21 08:20:29;;;;;;;30.97;11.57;;;;;;;3.55;100.00;100201.91;5021694;28;20041;-72
2022/01/21 08:22:55;;;;;;;27.20;10.20;;;;;;;3.50;100.00;100207.47;5021590;28;20037;-73
2022/01/21 08:25:21;;;;;;;23.90;9.97;;;;;;;3.48;100.00;100204.13;5003166;28;20041;-73
2022/01/21 08:27:46;;;;;;;21.50;9.13;;;;;;;3.77;98.00;100221.28;5019557;28;20037;-72
2022/01/21 08:30:12;;;;;;;14.27;6.73;;;;;;;3.88;97.78;100222.31;5021299;28;20030;-71
2022/01/21 08:32:38;;;;;;;14.60;8.20;;;;;;;4.05;96.76;100227.19;5021417;28;20357;-73
2022/01/21 08:35:05;;;;;;;15.93;9.40;;;;;;;4.14;95.29;100242.25;5020839;28;20032;-72
2022/01/21 08:37:30;;;;;;;18.95;9.15;;;;;;;4.05;94.99;100235.06;5003589;28;20076;-72
2022/01/21 08:39:56;;;;;;;25.43;9.27;;;;;;;4.41;94.02;100248.19;5021118;28;20030;-72
2022/01/21 08:42:22;;;;;;;18.95;8.02;;;;;;;4.45;93.15;100240.94;5020795;28;20026;-73
2022/01/21 08:44:47;;;;;;;21.23;10.20;;;;;;;4.66;91.58;100242.00;5020966;28;20037;-73
2022/01/21 08:47:12;;;;;;;18.23;8.88;;;;;;;4.85;90.51;100259.00;5003469;28;20101;-72
2022/01/21 08:49:39;;;;;;;17.83;7.80;;;;;;;4.91;89.62;100251.50;5020308;28;20386;-72
2022/01/21 08:52:04;;;;;;;22.50;8.95;;;;;;;4.99;88.53;100246.53;5004411;28;20040;-73
2022/01/21 08:54:30;;;;;;;24.88;8.75;;;;;;;5.09;87.80;100250.16;5021561;28;20231;-74
2022/01/21 08:56:56;;;;;;;30.75;12.32;;;;;;;5.24;87.04;100261.31;5020941;28;20224;-72
2022/01/21 08:59:23;;;;;;;27.23;11.80;;;;;;;5.27;87.12;100253.22;5021544;28;20104;-73
2022/01/21 09:01:49;;;;;;;28.67;12.05;;;;;;;5.22;87.58;100249.25;5021362;28;20044;-74
2022/01/21 09:04:15;;;;;;;22.48;10.00;;;;;;;5.30;86.60;100265.25;5003418;28;20033;-74
2022/01/21 09:06:41;;;;;;;21.65;10.57;;;;;;;5.41;86.34;100258.25;5021740;28;20316;-72
2022/01/21 09:09:06;;;;;;;15.27;6.82;;;;;;;5.44;84.11;100255.38;5003776;28;20026;-72
2022/01/21 09:11:32;;;;;;;19.90;8.65;;;;;;;5.03;85.29;100245.34;5003327;28;20022;-73
2022/01/21 09:13:58;;;;;;;12.52;5.93;;;;;;;4.87;86.15;100257.94;5021348;28;20096;-72
2022/01/21 09:16:24;;;;;;;9.45;4.20;;;;;;;4.69;86.47;100254.03;5021359;28;20036;-73
2022/01/21 09:18:52;;;;;;;5.85;3.70;;;;;;;4.71;86.62;100254.78;5021125;28;20316;-72
2022/01/21 09:21:28;;;;;;;6.50;3.13;;;;;;;4.58;86.96;100254.81;5003960;28;20057;-72
2022/01/21 09:23:55;;;;;;;4.60;2.50;;;;;;;4.42;88.13;100265.59;5020894;28;20049;-73
2022/01/21 09:26:23;;;;;;;5.10;3.17;;;;;;;4.35;88.33;100246.00;5021151;28;20213;-73
2022/01/21 09:28:50;;;;;;;8.43;3.57;;;;;;;4.21;88.34;100243.53;5003499;28;20026;-72
2022/01/21 09:31:16;;;;;;;8.90;3.93;;;;;;;4.09;87.75;100220.78;5003797;28;20235;-73
2022/01/21 09:33:42;;;;;;;10.13;3.50;;;;;;;4.20;87.39;100217.44;5021394;28;20026;-73
2022/01/21 09:36:09;;;;;;;5.63;3.00;;;;;;;4.06;88.21;100216.59;5006583;28;20037;-73
2022/01/21 09:38:34;;;;;;;5.67;2.93;;;;;;;3.85;88.43;100211.09;5025256;28;20026;-73
2022/01/21 09:41:00;;;;;;;5.03;2.87;;;;;;;3.67;89.66;100209.75;5025114;28;20256;-72
2022/01/21 09:43:26;;;;;;;5.43;3.00;;;;;;;3.66;88.60;100210.72;5024954;28;20108;-72
2022/01/21 09:45:54;;;;;;;5.57;2.57;;;;;;;3.67;88.11;100204.53;5007413;28;20034;-73
2022/01/21 09:48:23;;;;;;;7.40;3.10;;;;;;;3.79;86.89;100194.97;5024443;28;20025;-73
2022/01/21 09:50:51;;;;;;;6.93;3.07;;;;;;;4.04;87.71;100197.53;5024722;28;20337;-72
2022/01/21 09:53:24;;;;;;;5.43;2.83;;;;;;;3.96;85.34;100185.91;5024967;28;20042;-72
2022/01/21 09:55:50;;;;;;;5.47;2.60;;;;;;;4.08;84.50;100187.66;5024792;28;20237;-73
2022/01/21 09:58:16;;;;;;;4.70;2.50;;;;;;;4.24;85.28;100179.56;5024936;28;20105;-72
2022/01/21 10:00:42;;;;;;;4.10;2.20;;;;;;;4.29;83.63;100170.41;5024951;28;20053;-73
2022/01/21 10:03:08;;;;;;;5.03;2.37;;;;;;;4.19;83.98;100177.28;5021208;28;20026;-73
2022/01/21 10:05:34;;;;;;;4.40;2.03;;;;;;;4.24;83.66;100172.53;5016096;28;20034;-73
2022/01/21 10:07:59;;;;;;;4.27;2.00;;;;;;;4.28;83.30;100171.38;5015196;28;20219;-73
2022/01/21 10:10:25;;;;;;;7.23;2.93;;;;;;;4.34;83.30;100173.53;4999446;28;20347;-72
2022/01/21 10:13:00;;;;;;;3.20;1.80;;;;;;;4.32;81.11;100154.47;5014594;28;20570;-72
2022/01/21 10:15:26;;;;;;;3.83;2.00;;;;;;;4.14;82.32;100148.75;5014795;28;20098;-73
2022/01/21 10:18:05;;;;;;;5.17;1.73;;;;;;;4.36;81.99;100166.41;5017056;28;20038;-73
2022/01/21 10:20:30;;;;;;;5.40;2.40;;;;;;;4.41;81.91;100172.16;5002117;28;20026;-72
2022/01/21 10:23:00;;;;;;;3.67;2.10;;;;;;;4.39;80.09;100166.19;5014529;28;20057;-72
2022/01/21 10:25:26;;;;;;;3.37;1.90;;;;;;;4.37;80.55;100167.22;5015980;28;20072;-72
2022/01/21 10:27:52;;;;;;;6.37;2.30;;;;;;;4.37;81.17;100173.31;5014925;28;20370;-73
2022/01/21 10:30:27;;;;;;;5.10;2.40;;;;;;;4.42;79.49;100165.94;5015169;28;20030;-73
2022/01/21 10:32:52;;;;;;;4.07;2.30;;;;;;;4.35;79.64;100164.72;5015770;28;20085;-72
2022/01/21 10:35:25;;;;;;;7.07;3.30;;;;;;;4.37;78.22;100162.00;5013782;28;20030;-72
2022/01/21 10:37:51;;;;;;;5.17;2.83;;;;;;;4.43;77.17;100166.78;5014492;28;20034;-73
2022/01/21 10:40:21;;;;;;;6.57;2.30;;;;;;;4.28;75.72;100152.19;5014293;28;20091;-73
2022/01/21 10:42:47;;;;;;;5.00;2.00;;;;;;;4.25;76.40;100149.78;5014185;28;20259;-73
2022/01/21 10:45:13;;;;;;;5.03;2.40;;;;;;;4.19;76.94;100148.44;5017250;28;20042;-72
2022/01/21 10:47:48;;;;;;;7.03;3.30;;;;;;;4.15;77.70;100139.94;5014155;28;20268;-72
2022/01/21 10:50:17;;;;;;;5.73;2.70;;;;;;;4.04;79.28;100152.16;5012944;28;20037;-73
2022/01/21 10:52:50;;;;;;;6.53;2.43;;;;;;;4.03;80.58;100140.81;5016640;28;20395;-73
2022/01/21 10:55:32;;;;;;;6.93;3.07;;;;;;;3.98;81.50;100134.25;5016277;28;20038;-72
2022/01/21 10:58:12;;;;;;;7.33;3.40;;;;;;;4.05;80.76;100141.56;5018065;28;20021;-72
2022/01/21 11:00:56;;;;;;;6.33;3.50;;;;;;;3.81;81.09;100088.31;5015526;28;20117;-73
2022/01/21 11:03:22;;;;;;;6.47;3.67;;;;;;;3.83;80.83;100125.69;5016005;28;20030;-73
2022/01/21 11:05:49;;;;;;;8.53;3.43;;;;;;;3.85;79.87;100124.66;5013616;28;20176;-73
2022/01/21 11:08:15;;;;;;;5.77;2.67;;;;;;;3.87;79.97;100124.53;5016765;28;20038;-73
2022/01/21 11:10:47;;;;;;;5.23;2.27;;;;;;;3.87;79.46;100134.19;5012317;28;20026;-73
2022/01/21 11:13:13;;;;;;;8.43;3.00;;;;;;;3.79;80.73;100124.25;5014190;28;20034;-72
2022/01/21 11:15:45;;;;;;;6.63;2.73;;;;;;;3.66;80.61;100126.91;5017247;28;20041;-72
2022/01/21 11:18:14;;;;;;;4.73;2.50;;;;;;;3.66;79.62;100128.69;5000077;28;20038;-73
2022/01/21 11:20:42;;;;;;;11.17;2.80;;;;;;;3.65;79.66;100127.84;5016934;28;20044;-73
2022/01/21 11:23:09;;;;;;;3.97;1.80;;;;;;;3.62;78.46;100130.69;5023271;28;20325;-71
2022/01/21 11:25:53;;;;;;;3.33;1.63;;;;;;;3.58;79.21;100121.38;5005510;28;20104;-72
2022/01/21 11:28:36;;;;;;;5.07;1.70;;;;;;;3.66;79.91;100128.69;5023078;28;20326;-73
2022/01/21 11:31:03;;;;;;;5.67;2.97;;;;;;;3.60;79.23;100121.28;5023052;28;20042;-73
2022/01/21 11:33:28;;;;;;;2.77;1.80;;;;;;;3.65;78.61;100122.63;5022401;28;20025;-72
2022/01/21 11:35:54;;;;;;;5.83;1.67;;;;;;;3.83;77.15;100113.44;5022675;28;20038;-72
2022/01/21 11:38:22;;;;;;;3.60;2.00;;;;;;;3.80;77.03;100120.69;5005339;28;20025;-73
2022/01/21 11:40:50;;;;;;;4.43;2.27;;;;;;;3.87;75.94;100115.84;5022699;28;20046;-73
2022/01/21 11:43:15;;;;;;;6.13;2.50;;;;;;;3.85;75.77;100114.16;5023019;28;20211;-73
2022/01/21 11:50:52;;;;;;;9.87;3.50;;;;;;;3.89;74.26;100103.47;5022980;28;20316;-73
2022/01/21 11:53:53;;;;;;;7.90;2.20;;;;;;;4.05;73.55;100109.28;5022748;28;20037;-72
2022/01/21 11:56:38;;;;;;;5.97;2.90;;;;;;;4.09;73.88;100127.28;5022378;28;20040;-72
2022/01/21 11:59:10;;;;;;;6.33;2.70;;;;;;;4.20;74.32;100126.53;5003737;28;20033;-73
2022/01/21 12:01:47;;;;;;;7.50;2.87;;;;;;;4.31;72.13;100110.00;5022334;28;20174;-73
2022/01/21 12:04:14;;;;;;;8.37;3.00;;;;;;;4.16;71.83;100098.84;5022573;28;20065;-73
2022/01/21 12:06:40;;;;;;;9.47;3.50;;;;;;;4.25;71.24;100100.81;5021099;28;20104;-72
2022/01/21 12:09:08;;;;;;;9.43;3.90;;;;;;;4.29;71.34;100099.63;5021966;28;20311;-72
2022/01/21 12:11:38;;;;;;;6.17;3.00;;;;;;;4.34;70.59;100088.81;5021971;28;20041;-73
2022/01/21 12:14:37;;;;;;;3.93;2.50;;;;;;;4.20;70.07;100099.47;5022055;28;20030;-73